Mastersonville, Pennsylvania
Current Conditions -  °F | °C
As of 5:53 PM on Thursday 23 Oct 2014 (Local Time) from KLNS Reporting Station
Overcast Overcast  
Wind Chill: 56°   Ceiling: 3500
Heat Index: 56°   Visibility: 10mi
Dew Point: 44°   Wind: 8mph
Humidity: 64%   Direction: 350°N
Pressure: 29.85"   Gusts: NA
Location:  40.1777°N, 76.4291°W
Report Text: KLNS 232153Z 35007KT 10SM OVC035 13/07 A2985 RMK AO2 SLP107 T01330067
Loading
Personal Weather Stations






























Interactive Weather Map
Tropical Storm Tracking
New forecast layout! Learn more

10-Day Weather Forecast

Advertisements
Track Severe Weather on mobile